Time;durP1;ratioP1;P1;durP2;ratioP2;P2;SDS_P1;SDS_P2;PMS_P1;PMS_P2;Temp;Humidity;BMP_temperature;BMP_pressure;BME280_temperature;BME280_humidity;BME280_pressure;Samples;Min_cycle;Max_cycle;Signal;HPM_P1;HPM_P2
2023/03/31 00:01:33;;;;;;;27.33;2.78;;;10.00;99.90;;;;;;5096392;28;20047;-76
2023/03/31 00:04:03;;;;;;;18.50;1.80;;;9.90;99.90;;;;;;5115052;28;20039;-77
2023/03/31 00:06:36;;;;;;;25.02;2.65;;;9.90;99.90;;;;;;5096275;28;20047;-78
2023/03/31 00:09:09;;;;;;;24.20;2.35;;;9.80;99.90;;;;;;5114307;28;20040;-77
2023/03/31 00:11:35;;;;;;;28.73;2.25;;;9.80;99.90;;;;;;5113983;28;20036;-77
2023/03/31 00:14:01;;;;;;;19.98;2.00;;;9.80;99.90;;;;;;5114279;28;20043;-76
2023/03/31 00:16:27;;;;;;;22.33;2.22;;;9.80;99.90;;;;;;5114019;28;20109;-77
2023/03/31 00:18:52;;;;;;;25.70;2.33;;;9.80;99.90;;;;;;5095964;28;20040;-77
2023/03/31 00:21:23;;;;;;;22.55;2.13;;;9.70;99.90;;;;;;5114069;28;20047;-77
2023/03/31 00:23:53;;;;;;;24.85;2.17;;;9.70;99.90;;;;;;5114691;28;20070;-77
2023/03/31 00:26:21;;;;;;;24.88;2.30;;;9.70;99.90;;;;;;5095916;28;20051;-78
2023/03/31 00:28:47;;;;;;;29.20;2.30;;;9.70;99.90;;;;;;5113927;28;20130;-76
2023/03/31 00:31:13;;;;;;;21.70;1.63;;;9.70;99.90;;;;;;5096562;28;20462;-75
2023/03/31 00:33:39;;;;;;;20.63;1.88;;;9.70;99.90;;;;;;5113938;28;20059;-75
2023/03/31 00:36:08;;;;;;;26.85;3.00;;;9.60;99.90;;;;;;5113978;28;20548;-77
2023/03/31 00:38:34;;;;;;;25.00;2.05;;;9.60;99.90;;;;;;5114720;28;20384;-77
2023/03/31 00:41:01;;;;;;;26.83;2.42;;;9.60;99.90;;;;;;5114516;28;20052;-77
2023/03/31 00:43:27;;;;;;;25.70;2.45;;;9.50;99.90;;;;;;5095790;28;20052;-77
2023/03/31 00:45:59;;;;;;;24.45;2.67;;;9.50;99.90;;;;;;5116599;28;20061;-76
2023/03/31 00:48:26;;;;;;;30.73;2.72;;;9.50;99.90;;;;;;5118998;28;20044;-77
2023/03/31 00:50:56;;;;;;;18.65;1.73;;;9.40;99.90;;;;;;5117988;28;20044;-74
2023/03/31 00:53:28;;;;;;;24.52;3.08;;;9.40;99.90;;;;;;5099915;28;20090;-76
2023/03/31 00:55:58;;;;;;;26.80;2.60;;;9.30;99.90;;;;;;5118456;28;20055;-76
2023/03/31 00:58:27;;;;;;;25.00;2.60;;;9.30;99.90;;;;;;5118577;28;20130;-74
2023/03/31 01:00:56;;;;;;;22.15;2.67;;;9.30;99.90;;;;;;5118352;28;20043;-76
2023/03/31 01:03:22;;;;;;;18.40;1.73;;;9.30;99.90;;;;;;5117810;28;20086;-76
2023/03/31 01:05:53;;;;;;;26.93;2.47;;;9.20;99.90;;;;;;5117916;28;20471;-76
2023/03/31 01:08:23;;;;;;;24.98;1.90;;;9.20;99.90;;;;;;5099597;28;20290;-76
2023/03/31 01:10:56;;;;;;;27.70;2.00;;;9.20;99.90;;;;;;5117544;28;20047;-78
2023/03/31 01:13:24;;;;;;;18.27;2.40;;;9.20;99.90;;;;;;5117693;28;20047;-76
2023/03/31 01:15:51;;;;;;;23.83;2.90;;;9.20;99.90;;;;;;5117430;28;20048;-76
2023/03/31 01:18:20;;;;;;;20.23;2.97;;;9.20;99.90;;;;;;5117598;28;20055;-78
2023/03/31 01:21:29;;;;;;;23.02;2.45;;;9.20;99.90;;;;;;5100146;28;20062;-76
2023/03/31 01:24:13;;;;;;;20.35;2.83;;;9.20;99.90;;;;;;5117695;28;20414;-76
2023/03/31 01:27:03;;;;;;;30.15;4.18;;;9.30;99.90;;;;;;5099016;28;20043;-75
2023/03/31 01:29:39;;;;;;;18.85;2.83;;;9.30;99.90;;;;;;5099190;28;20048;-77
2023/03/31 01:32:30;;;;;;;23.77;3.25;;;9.30;99.90;;;;;;5117190;28;20047;-76
2023/03/31 01:35:54;;;;;;;19.15;3.10;;;9.30;99.90;;;;;;5116817;28;20055;-78
2023/03/31 01:38:38;;;;;;;26.13;3.63;;;9.30;99.90;;;;;;5034693;28;20041;-76
2023/03/31 01:41:06;;;;;;;20.02;3.25;;;9.30;99.90;;;;;;5117056;28;20131;-76
2023/03/31 01:43:50;;;;;;;17.48;3.42;;;9.30;99.90;;;;;;5098617;28;20090;-75
2023/03/31 01:46:34;;;;;;;24.52;3.80;;;9.40;99.90;;;;;;5117094;28;20087;-75
2023/03/31 01:49:15;;;;;;;16.70;2.80;;;9.40;99.90;;;;;;5116805;28;20092;-77
2023/03/31 01:51:59;;;;;;;25.73;3.97;;;9.40;99.90;;;;;;5099519;28;20408;-76
2023/03/31 01:54:49;;;;;;;17.30;3.30;;;9.40;99.90;;;;;;5117523;28;20035;-77
2023/03/31 01:57:34;;;;;;;21.83;3.67;;;9.40;99.90;;;;;;5116611;28;20057;-77
2023/03/31 02:00:03;;;;;;;14.38;3.05;;;9.40;99.90;;;;;;5099322;28;20141;-76
2023/03/31 02:03:18;;;;;;;13.45;2.85;;;9.30;99.90;;;;;;5116871;28;20096;-76
2023/03/31 02:05:50;;;;;;;22.75;3.40;;;9.30;99.90;;;;;;5112557;28;20087;-78
2023/03/31 02:08:40;;;;;;;16.60;3.13;;;9.40;99.90;;;;;;5116635;28;20055;-76
2023/03/31 02:11:06;;;;;;;15.18;2.65;;;9.40;99.90;;;;;;5116328;28;20040;-76
2023/03/31 02:13:33;;;;;;;21.27;3.08;;;9.40;99.90;;;;;;5116393;28;20373;-75
2023/03/31 02:16:04;;;;;;;19.05;2.95;;;9.40;99.90;;;;;;5098214;28;20043;-78
2023/03/31 02:18:36;;;;;;;17.30;2.88;;;9.40;99.90;;;;;;5116440;28;20043;-77
2023/03/31 02:21:05;;;;;;;23.05;3.40;;;9.50;99.90;;;;;;5117142;28;20122;-77
2023/03/31 02:23:31;;;;;;;17.88;2.90;;;9.40;99.90;;;;;;5098206;28;20047;-77
2023/03/31 02:26:18;;;;;;;13.98;2.90;;;9.40;99.90;;;;;;5116188;28;20050;-76
2023/03/31 02:28:44;;;;;;;16.02;2.72;;;9.50;99.90;;;;;;5116840;28;20044;-77
2023/03/31 02:31:37;;;;;;;19.42;2.72;;;9.50;99.90;;;;;;5098432;28;20043;-75
2023/03/31 02:34:02;;;;;;;18.08;2.97;;;9.50;99.90;;;;;;5116586;28;20345;-76
2023/03/31 02:36:28;;;;;;;26.33;4.45;;;9.60;99.90;;;;;;5097864;28;20058;-77
2023/03/31 02:39:03;;;;;;;17.85;3.65;;;9.60;99.90;;;;;;5097702;28;20044;-76
2023/03/31 02:41:29;;;;;;;18.83;2.90;;;9.70;99.90;;;;;;5116218;28;20062;-76
2023/03/31 02:43:55;;;;;;;15.10;3.72;;;9.80;99.90;;;;;;5115531;28;20035;-77
2023/03/31 02:46:21;;;;;;;14.55;3.03;;;9.80;99.90;;;;;;5115820;28;20050;-78
2023/03/31 02:48:55;;;;;;;16.10;2.83;;;9.90;99.90;;;;;;5116131;28;20051;-74
2023/03/31 02:51:32;;;;;;;13.77;2.83;;;9.90;99.90;;;;;;5097630;28;20128;-77
2023/03/31 02:54:13;;;;;;;16.60;3.65;;;9.90;99.90;;;;;;5115759;28;20047;-75
2023/03/31 02:56:57;;;;;;;13.75;3.90;;;10.00;99.90;;;;;;5115722;28;20054;-73
2023/03/31 02:59:38;;;;;;;16.63;4.30;;;10.00;99.90;;;;;;5097339;28;20048;-77
2023/03/31 03:02:12;;;;;;;21.58;3.90;;;10.00;99.90;;;;;;5081628;28;20101;-78
2023/03/31 03:05:03;;;;;;;11.43;2.80;;;10.10;99.90;;;;;;5098510;28;20044;-78
2023/03/31 03:07:53;;;;;;;15.68;3.28;;;10.00;99.90;;;;;;5114665;28;20460;-77
2023/03/31 03:10:56;;;;;;;11.27;2.72;;;10.10;99.90;;;;;;5116574;28;20047;-77
2023/03/31 03:13:46;;;;;;;15.93;2.50;;;10.10;99.90;;;;;;5119699;28;20048;-77
2023/03/31 03:16:23;;;;;;;13.48;3.17;;;10.10;99.90;;;;;;5119452;28;20077;-76
2023/03/31 03:19:05;;;;;;;12.65;2.70;;;10.10;99.90;;;;;;5120457;28;20043;-76
2023/03/31 03:21:32;;;;;;;12.02;3.15;;;10.10;99.90;;;;;;5122151;28;20058;-75
2023/03/31 03:23:59;;;;;;;9.93;2.45;;;10.00;99.90;;;;;;5103969;28;20431;-74
2023/03/31 03:26:26;;;;;;;15.27;2.80;;;10.00;99.90;;;;;;5102515;28;20456;-75
2023/03/31 03:28:53;;;;;;;14.65;3.08;;;10.00;99.90;;;;;;5099448;28;20058;-75
2023/03/31 03:31:22;;;;;;;13.68;3.17;;;10.00;99.90;;;;;;5097935;28;20407;-76
2023/03/31 03:33:49;;;;;;;12.25;2.55;;;9.90;99.90;;;;;;5114920;28;20064;-74
2023/03/31 03:36:15;;;;;;;12.18;2.67;;;9.90;99.90;;;;;;5115961;28;20047;-74
2023/03/31 03:38:41;;;;;;;11.88;2.72;;;9.90;99.90;;;;;;5114983;28;20050;-75
2023/03/31 03:41:07;;;;;;;12.27;2.58;;;9.90;99.90;;;;;;5115399;28;20047;-75
2023/03/31 03:43:33;;;;;;;16.45;2.20;;;9.80;99.90;;;;;;5096808;28;20369;-75
2023/03/31 03:45:59;;;;;;;15.10;2.50;;;9.80;99.90;;;;;;5114854;28;20126;-78
2023/03/31 03:48:25;;;;;;;12.90;3.00;;;9.80;99.90;;;;;;5096974;28;20395;-78
2023/03/31 03:50:53;;;;;;;11.23;2.43;;;9.80;99.90;;;;;;5097372;28;20047;-77
2023/03/31 03:53:19;;;;;;;11.82;2.30;;;9.80;99.90;;;;;;5117235;28;20464;-77
2023/03/31 03:55:47;;;;;;;13.10;2.90;;;9.70;99.90;;;;;;5100495;28;20079;-76
2023/03/31 03:58:15;;;;;;;9.18;2.17;;;9.70;99.90;;;;;;5116277;28;20058;-77
2023/03/31 04:00:40;;;;;;;;;;;9.70;99.90;;;;;;5117821;28;20047;-76
2023/03/31 04:03:06;;;;;;;14.57;2.73;;;9.80;99.90;;;;;;5098030;28;19985;-76
2023/03/31 04:05:32;;;;;;;19.38;3.53;;;9.70;99.90;;;;;;5082397;28;20077;-77
2023/03/31 04:07:57;;;;;;;19.27;3.08;;;9.80;99.90;;;;;;5098671;28;20083;-75
2023/03/31 04:10:23;;;;;;;14.15;3.38;;;9.70;99.90;;;;;;5080900;28;20039;-76
2023/03/31 04:12:49;;;;;;;13.68;3.03;;;9.80;99.90;;;;;;5116561;28;20086;-77
2023/03/31 04:15:15;;;;;;;10.10;2.75;;;9.90;99.90;;;;;;5099815;28;20123;-77
2023/03/31 04:17:40;;;;;;;14.02;2.95;;;9.80;99.90;;;;;;5080407;28;20158;-76
2023/03/31 04:20:08;;;;;;;21.95;4.65;;;9.80;99.90;;;;;;5101246;28;20063;-77
2023/03/31 04:22:39;;;;;;;20.08;3.88;;;9.90;99.90;;;;;;5118648;28;20043;-75
2023/03/31 04:25:16;;;;;;;15.25;3.30;;;9.90;99.90;;;;;;5118505;28;20047;-78
2023/03/31 04:27:54;;;;;;;11.95;2.80;;;9.90;99.90;;;;;;5099299;28;20139;-76
2023/03/31 04:30:22;;;;;;;10.85;2.65;;;9.90;99.90;;;;;;5116916;28;20044;-75
2023/03/31 04:32:49;;;;;;;11.50;2.78;;;10.00;99.90;;;;;;5116082;28;20035;-76
2023/03/31 04:35:16;;;;;;;16.73;2.85;;;10.00;99.90;;;;;;5115742;28;20081;-76
2023/03/31 04:37:43;;;;;;;9.68;2.33;;;9.90;99.90;;;;;;5115333;28;20093;-77
2023/03/31 04:40:10;;;;;;;12.88;2.65;;;9.90;99.90;;;;;;5115574;28;20055;-77
2023/03/31 04:42:36;;;;;;;13.07;2.35;;;9.90;99.90;;;;;;5096540;28;20050;-76
2023/03/31 04:45:02;;;;;;;10.95;2.65;;;10.00;99.90;;;;;;5115580;28;20130;-76
2023/03/31 04:47:28;;;;;;;16.35;2.90;;;9.90;99.90;;;;;;5116342;28;20066;-77
2023/03/31 04:49:54;;;;;;;13.55;2.97;;;9.90;99.90;;;;;;5097724;28;20418;-76
2023/03/31 04:52:19;;;;;;;11.95;3.30;;;9.90;99.90;;;;;;5115357;28;20048;-77
2023/03/31 04:54:45;;;;;;;16.58;3.25;;;9.80;99.90;;;;;;5117499;28;20131;-76
2023/03/31 04:57:11;;;;;;;12.65;2.80;;;9.90;99.90;;;;;;5081454;28;20088;-77
2023/03/31 04:59:36;;;;;;;9.82;2.92;;;9.90;99.90;;;;;;5081458;28;20050;-74
2023/03/31 05:02:02;;;;;;;16.55;2.97;;;9.90;99.90;;;;;;5080381;28;20471;-76
2023/03/31 05:04:28;;;;;;;15.88;3.40;;;9.80;99.90;;;;;;5096253;28;20043;-75
2023/03/31 05:06:54;;;;;;;13.68;3.17;;;9.90;99.90;;;;;;5096618;28;20130;-78
2023/03/31 05:09:19;;;;;;;9.38;2.75;;;9.80;99.90;;;;;;5114477;28;20047;-77
2023/03/31 05:11:45;;;;;;;9.52;2.53;;;9.80;99.90;;;;;;5114280;28;20117;-77
2023/03/31 05:14:11;;;;;;;11.10;2.83;;;9.80;99.90;;;;;;5113532;28;20050;-78
2023/03/31 05:16:36;;;;;;;10.90;2.50;;;9.80;99.90;;;;;;5096494;28;20076;-75
2023/03/31 05:19:02;;;;;;;12.00;2.90;;;9.80;99.90;;;;;;5096430;28;20040;-75
2023/03/31 05:21:30;;;;;;;11.32;2.75;;;9.80;99.90;;;;;;5096744;28;20039;-78
2023/03/31 05:23:56;;;;;;;11.05;2.85;;;9.80;99.90;;;;;;5113932;28;20460;-77
2023/03/31 05:26:24;;;;;;;12.40;3.55;;;9.80;99.90;;;;;;5113812;28;20044;-75
2023/03/31 05:28:53;;;;;;;12.43;3.25;;;9.80;99.90;;;;;;5114452;28;20048;-76
2023/03/31 05:31:19;;;;;;;14.73;3.42;;;9.80;99.90;;;;;;5114270;28;20555;-75
2023/03/31 05:33:45;;;;;;;16.33;3.67;;;9.80;99.90;;;;;;5083184;28;20122;-75
2023/03/31 05:36:14;;;;;;;10.63;2.88;;;9.90;99.90;;;;;;5118676;28;20059;-75
2023/03/31 05:38:40;;;;;;;10.57;2.97;;;9.90;99.90;;;;;;5099864;28;20112;-75
2023/03/31 05:41:08;;;;;;;14.95;3.03;;;9.90;99.90;;;;;;5117106;28;20118;-73
2023/03/31 05:43:34;;;;;;;10.80;2.85;;;9.80;99.90;;;;;;5117090;28;20059;-78
2023/03/31 05:46:01;;;;;;;10.93;3.10;;;9.90;99.90;;;;;;5117958;28;20398;-74
2023/03/31 05:48:26;;;;;;;10.50;2.73;;;9.90;99.90;;;;;;5100208;28;20451;-77
2023/03/31 05:50:59;;;;;;;14.55;2.75;;;9.80;99.90;;;;;;5116880;28;20289;-76
2023/03/31 05:53:25;;;;;;;15.38;3.00;;;9.80;99.90;;;;;;5117133;28;20079;-76
2023/03/31 05:56:00;;;;;;;9.25;2.00;;;9.80;99.90;;;;;;5098965;28;20501;-74
2023/03/31 05:58:27;;;;;;;12.45;2.45;;;9.80;99.90;;;;;;5117926;28;20046;-76
2023/03/31 06:01:08;;;;;;;13.13;2.50;;;9.80;99.90;;;;;;5099164;28;20456;-75
2023/03/31 06:03:35;;;;;;;13.65;2.97;;;9.80;99.90;;;;;;5100117;28;20292;-76
2023/03/31 06:06:01;;;;;;;13.88;3.03;;;9.80;99.90;;;;;;5099422;28;20054;-74
2023/03/31 06:08:28;;;;;;;14.03;3.50;;;9.90;99.90;;;;;;5098486;28;20039;-74
2023/03/31 06:10:54;;;;;;;18.58;3.90;;;9.90;99.90;;;;;;5098794;28;20127;-74
2023/03/31 06:13:19;;;;;;;11.93;3.35;;;9.80;99.90;;;;;;5116782;28;20096;-74
2023/03/31 06:15:53;;;;;;;14.48;3.05;;;9.80;99.90;;;;;;5117532;28;20126;-75
2023/03/31 06:18:19;;;;;;;16.63;3.40;;;9.80;99.90;;;;;;5117545;28;20039;-78
2023/03/31 06:20:44;;;;;;;12.35;2.30;;;9.80;99.90;;;;;;5082765;28;20067;-75
2023/03/31 06:23:10;;;;;;;15.02;3.53;;;9.80;99.90;;;;;;5082703;28;20125;-75
2023/03/31 06:25:39;;;;;;;11.77;2.72;;;9.90;99.90;;;;;;5116645;28;20130;-76
2023/03/31 06:28:07;;;;;;;13.73;2.67;;;9.90;99.90;;;;;;5099051;28;20079;-75
2023/03/31 06:30:33;;;;;;;15.13;2.85;;;9.90;99.90;;;;;;5098715;28;20048;-75
2023/03/31 06:32:59;;;;;;;17.48;3.28;;;9.90;99.90;;;;;;5117902;28;20036;-76
2023/03/31 06:35:25;;;;;;;7.15;1.98;;;10.00;99.90;;;;;;5098661;28;20058;-77
2023/03/31 06:37:51;;;;;;;8.82;1.50;;;10.10;99.90;;;;;;5119432;28;20055;-79
2023/03/31 06:40:17;;;;;;;6.47;1.15;;;10.20;99.90;;;;;;5119051;28;20047;-79
2023/03/31 06:42:43;;;;;;;8.95;2.08;;;10.30;99.90;;;;;;5118770;28;20109;-77
2023/03/31 06:45:09;;;;;;;13.57;1.90;;;10.30;99.90;;;;;;5120262;28;20079;-78
2023/03/31 06:47:37;;;;;;;13.43;2.50;;;10.30;99.90;;;;;;5102522;28;20508;-76
2023/03/31 06:50:04;;;;;;;13.43;3.60;;;10.20;99.90;;;;;;5121700;28;20043;-76
2023/03/31 06:52:30;;;;;;;;;;;10.20;99.90;;;;;;5084295;28;20039;-75
2023/03/31 06:54:56;;;;;;;14.70;3.40;;;10.10;99.90;;;;;;5098798;28;19919;-77
2023/03/31 06:57:21;;;;;;;12.35;2.42;;;10.00;99.90;;;;;;5067430;28;20396;-77
2023/03/31 06:59:47;;;;;;;12.32;2.63;;;10.00;99.90;;;;;;5117872;28;20051;-76
2023/03/31 07:02:13;;;;;;;13.05;3.67;;;10.10;99.90;;;;;;5116367;28;20122;-75
2023/03/31 07:04:39;;;;;;;15.95;2.92;;;10.10;99.90;;;;;;5117384;28;20039;-77
2023/03/31 07:07:05;;;;;;;15.45;2.97;;;10.10;99.90;;;;;;5115991;28;20051;-76
2023/03/31 07:09:31;;;;;;;13.50;2.63;;;10.10;99.90;;;;;;5099359;28;20052;-75
2023/03/31 07:11:56;;;;;;;15.10;3.22;;;10.10;99.90;;;;;;5082212;28;20138;-78
2023/03/31 07:14:22;;;;;;;16.98;4.05;;;10.10;99.90;;;;;;5117739;28;20047;-78
2023/03/31 07:16:49;;;;;;;14.68;3.97;;;10.20;99.90;;;;;;5099077;28;20142;-75
2023/03/31 07:19:15;;;;;;;14.40;3.10;;;10.30;99.90;;;;;;5116918;28;20056;-75
2023/03/31 07:21:41;;;;;;;12.52;3.13;;;10.30;99.90;;;;;;5118246;28;20077;-79
2023/03/31 07:24:06;;;;;;;14.82;2.85;;;10.30;99.90;;;;;;5118425;28;20047;-79
2023/03/31 07:26:32;;;;;;;14.82;2.97;;;10.40;99.90;;;;;;5117137;28;20476;-77
2023/03/31 07:28:58;;;;;;;22.33;3.83;;;10.40;99.90;;;;;;5116258;28;20105;-75
2023/03/31 07:31:24;;;;;;;11.95;2.90;;;10.50;99.90;;;;;;5100317;28;20040;-76
2023/03/31 07:33:50;;;;;;;15.50;2.72;;;10.50;99.90;;;;;;5098820;28;20043;-77
2023/03/31 07:36:16;;;;;;;11.88;2.50;;;10.50;99.90;;;;;;5115140;28;20134;-77
2023/03/31 07:38:45;;;;;;;9.82;2.10;;;10.50;99.90;;;;;;5116054;28;20052;-79
2023/03/31 07:41:19;;;;;;;12.85;3.08;;;10.50;99.90;;;;;;5098302;28;20036;-77
2023/03/31 07:43:45;;;;;;;9.60;1.60;;;10.50;99.90;;;;;;5097586;28;20050;-76
2023/03/31 07:46:17;;;;;;;12.02;2.17;;;10.50;99.90;;;;;;5114871;28;20040;-78
2023/03/31 07:48:45;;;;;;;8.70;2.20;;;10.50;99.90;;;;;;5080607;28;20047;-76
2023/03/31 07:51:11;;;;;;;16.33;2.17;;;10.50;99.90;;;;;;5115299;28;20073;-77
2023/03/31 07:53:37;;;;;;;8.10;2.00;;;10.50;99.90;;;;;;5096893;28;20058;-78
2023/03/31 07:56:03;;;;;;;11.45;2.10;;;10.40;99.90;;;;;;5097314;28;20044;-78
2023/03/31 07:58:29;;;;;;;13.18;2.17;;;10.40;99.90;;;;;;5115347;28;20040;-75
2023/03/31 08:00:55;;;;;;;13.50;2.13;;;10.40;99.90;;;;;;5063190;28;20391;-75
2023/03/31 08:03:21;;;;;;;10.02;2.00;;;10.40;99.90;;;;;;5098515;28;20051;-75
2023/03/31 08:05:46;;;;;;;13.93;1.75;;;10.50;99.90;;;;;;5114956;28;20052;-76
2023/03/31 08:08:12;;;;;;;9.68;2.00;;;10.50;99.90;;;;;;5114777;28;20040;-76
2023/03/31 08:10:38;;;;;;;9.25;1.90;;;10.50;99.90;;;;;;5114484;28;20040;-76
2023/03/31 08:13:04;;;;;;;12.10;1.88;;;10.50;99.90;;;;;;5114274;28;20488;-77
2023/03/31 08:15:30;;;;;;;7.68;2.15;;;10.50;99.90;;;;;;5096364;28;20125;-75
2023/03/31 08:17:56;;;;;;;10.95;1.70;;;10.60;99.90;;;;;;5096139;28;20479;-79
2023/03/31 08:20:21;;;;;;;9.05;1.85;;;10.60;99.90;;;;;;5079651;28;20099;-76
2023/03/31 08:22:47;;;;;;;12.30;1.88;;;10.60;99.90;;;;;;5114152;28;20043;-76
2023/03/31 08:25:13;;;;;;;14.02;1.95;;;10.60;99.90;;;;;;5096519;28;20048;-76
2023/03/31 08:27:39;;;;;;;13.20;1.80;;;10.70;99.90;;;;;;5079910;28;20054;-75
2023/03/31 08:30:07;;;;;;;10.95;1.67;;;10.80;99.90;;;;;;5063468;28;20047;-75
2023/03/31 08:32:33;;;;;;;12.88;1.60;;;10.80;99.90;;;;;;5117139;28;20112;-76
2023/03/31 08:34:59;;;;;;;8.93;1.60;;;10.90;99.90;;;;;;5115987;28;20048;-76
2023/03/31 08:37:27;;;;;;;9.63;1.98;;;11.00;99.90;;;;;;5097040;28;20047;-75
2023/03/31 08:39:54;;;;;;;8.23;2.28;;;11.10;99.90;;;;;;5095997;28;20047;-75
2023/03/31 08:42:32;;;;;;;9.32;1.60;;;11.10;99.90;;;;;;5114148;28;20043;-79
2023/03/31 08:45:21;;;;;;;8.48;1.60;;;11.20;99.90;;;;;;5114456;28;20039;-76
2023/03/31 08:47:50;;;;;;;8.45;1.38;;;11.20;99.90;;;;;;5106436;28;20059;-77
2023/03/31 08:50:20;;;;;;;9.07;1.60;;;11.20;99.90;;;;;;5115730;28;20059;-75
2023/03/31 08:53:12;;;;;;;9.00;1.42;;;11.10;99.90;;;;;;5096871;28;20035;-75
2023/03/31 08:56:07;;;;;;;8.32;1.63;;;11.10;99.90;;;;;;5118301;28;20130;-76
2023/03/31 08:58:41;;;;;;;11.65;1.48;;;11.30;99.90;;;;;;5115290;28;20081;-75
2023/03/31 09:01:12;;;;;;;8.88;1.23;;;11.30;99.90;;;;;;5117905;28;20080;-78
2023/03/31 09:03:57;;;;;;;9.25;1.50;;;11.40;99.90;;;;;;5116973;28;20126;-75
2023/03/31 09:06:57;;;;;;;6.63;1.02;;;11.40;99.90;;;;;;5116274;28;20043;-75
2023/03/31 09:09:32;;;;;;;8.05;1.42;;;11.40;99.90;;;;;;5094423;28;20047;-76
2023/03/31 09:12:07;;;;;;;7.63;1.13;;;11.40;99.90;;;;;;5118502;28;20051;-80
2023/03/31 09:14:40;;;;;;;8.13;1.33;;;11.40;99.90;;;;;;5084316;28;20058;-75
2023/03/31 09:17:25;;;;;;;6.63;1.50;;;11.30;99.90;;;;;;5084273;28;20384;-76
2023/03/31 09:20:08;;;;;;;5.90;0.90;;;11.50;99.90;;;;;;5100777;28;20047;-77
2023/03/31 09:22:45;;;;;;;7.45;1.38;;;11.60;99.90;;;;;;5119047;28;20047;-76
2023/03/31 09:25:18;;;;;;;9.48;1.63;;;11.60;99.90;;;;;;5118163;28;20048;-76
2023/03/31 09:27:46;;;;;;;6.07;1.48;;;11.50;99.90;;;;;;5118055;28;20119;-76
2023/03/31 09:30:19;;;;;;;6.88;1.73;;;11.50;99.90;;;;;;5101940;28;20087;-77
2023/03/31 09:32:48;;;;;;;6.93;1.42;;;11.60;99.90;;;;;;5118598;28;20479;-74
2023/03/31 09:35:32;;;;;;;7.82;1.35;;;11.70;99.90;;;;;;5117844;28;20083;-77
2023/03/31 09:37:58;;;;;;;5.53;1.10;;;11.60;99.90;;;;;;5117980;28;20047;-78
2023/03/31 09:40:26;;;;;;;5.10;1.00;;;11.70;99.90;;;;;;5117801;28;20051;-80
2023/03/31 09:43:22;;;;;;;7.68;1.20;;;11.70;99.90;;;;;;5117774;28;20039;-76
2023/03/31 09:45:48;;;;;;;6.82;0.90;;;11.60;99.90;;;;;;5107866;28;20059;-78
2023/03/31 09:48:19;;;;;;;6.88;1.27;;;11.60;99.90;;;;;;5098742;28;20044;-76
2023/03/31 09:50:53;;;;;;;4.30;1.13;;;11.50;99.90;;;;;;5081462;28;20130;-76
2023/03/31 09:53:33;;;;;;;5.88;1.48;;;11.50;99.90;;;;;;5117383;28;20042;-78
2023/03/31 09:56:06;;;;;;;7.65;1.10;;;11.50;99.90;;;;;;5117596;28;20047;-76
2023/03/31 09:58:43;;;;;;;6.50;1.17;;;11.50;99.90;;;;;;5081905;28;20365;-74
2023/03/31 10:01:11;;;;;;;7.05;1.40;;;11.60;99.90;;;;;;5083097;28;20058;-80
2023/03/31 10:04:06;;;;;;;3.67;0.85;;;11.60;99.90;;;;;;5116754;28;20063;-76
2023/03/31 10:06:39;;;;;;;8.18;1.27;;;11.70;99.90;;;;;;5117527;28;20079;-81
2023/03/31 10:09:08;;;;;;;8.95;1.20;;;11.70;99.90;;;;;;5099614;28;20040;-76
2023/03/31 10:11:33;;;;;;;7.25;1.17;;;11.90;99.90;;;;;;5099151;28;20085;-76
2023/03/31 10:13:59;;;;;;;7.43;0.88;;;12.10;99.90;;;;;;5098168;28;20048;-76
2023/03/31 10:16:31;;;;;;;6.60;1.13;;;12.20;99.90;;;;;;5115782;28;20043;-77
2023/03/31 10:19:26;;;;;;;5.38;0.80;;;12.40;99.90;;;;;;5098225;28;20056;-75
2023/03/31 10:22:04;;;;;;;5.55;0.60;;;12.50;99.90;;;;;;5117715;28;20043;-76
2023/03/31 10:24:44;;;;;;;6.15;1.00;;;12.60;99.90;;;;;;5115596;28;20047;-78
2023/03/31 10:27:30;;;;;;;5.07;0.70;;;12.50;99.90;;;;;;5116350;28;20044;-75
2023/03/31 10:30:00;;;;;;;4.10;0.88;;;12.40;99.90;;;;;;5098181;28;20051;-77
2023/03/31 10:32:38;;;;;;;3.83;0.60;;;12.40;99.90;;;;;;5115239;28;20043;-77
2023/03/31 10:35:34;;;;;;;2.03;0.52;;;12.30;99.90;;;;;;5076048;28;1123577;-76
2023/03/31 10:38:22;;;;;;;4.40;0.70;;;12.10;99.90;;;;;;5108654;28;20052;-75
2023/03/31 10:40:55;;;;;;;7.03;1.15;;;12.10;99.90;;;;;;5081739;28;20425;-76
2023/03/31 10:43:36;;;;;;;4.85;0.73;;;12.20;99.90;;;;;;5116080;28;20056;-75
2023/03/31 10:46:03;;;;;;;6.38;1.80;;;12.20;99.90;;;;;;5116117;28;20130;-76
2023/03/31 10:48:30;;;;;;;6.38;1.05;;;12.20;99.90;;;;;;5116383;28;20048;-76
2023/03/31 10:51:05;;;;;;;6.38;0.70;;;12.40;99.90;;;;;;5116196;28;20099;-78
2023/03/31 10:53:43;;;;;;;5.40;1.10;;;12.50;99.90;;;;;;5118448;28;20136;-77
2023/03/31 10:56:18;;;;;;;4.32;1.10;;;12.60;99.90;;;;;;5097984;28;20502;-76
2023/03/31 10:58:49;;;;;;;6.90;1.08;;;12.60;99.90;;;;;;5098687;28;20039;-75
2023/03/31 11:01:33;;;;;;;3.40;0.82;;;12.70;99.90;;;;;;5115908;28;20031;-75
2023/03/31 11:04:09;;;;;;;8.75;0.90;;;12.90;99.90;;;;;;5116536;28;20035;-78
2023/03/31 11:07:00;;;;;;;4.33;1.17;;;12.90;99.90;;;;;;5119642;28;20602;-78
2023/03/31 11:09:54;;;;;;;8.52;1.10;;;13.00;99.90;;;;;;5098777;28;20285;-77
2023/03/31 11:12:22;;;;;;;5.28;1.00;;;12.70;99.90;;;;;;5098019;28;20122;-78
2023/03/31 11:15:00;;;;;;;16.10;1.70;;;12.80;99.90;;;;;;5117140;28;20046;-79
2023/03/31 11:17:32;;;;;;;6.38;1.15;;;12.80;99.90;;;;;;5098175;28;20529;-76
2023/03/31 11:20:11;;;;;;;7.63;1.35;;;12.80;99.90;;;;;;5115470;28;20044;-77
2023/03/31 11:22:51;;;;;;;7.43;1.63;;;12.90;99.90;;;;;;5115761;28;20557;-74
2023/03/31 11:25:26;;;;;;;6.63;1.40;;;13.20;99.90;;;;;;5081333;28;20040;-78
2023/03/31 11:28:14;;;;;;;6.75;1.65;;;13.20;99.90;;;;;;5115660;28;20499;-78
2023/03/31 11:31:02;;;;;;;7.65;1.50;;;13.20;99.90;;;;;;5115478;28;20054;-75
2023/03/31 11:33:39;;;;;;;9.00;1.65;;;13.40;99.90;;;;;;5097532;28;20043;-76
2023/03/31 11:36:11;;;;;;;11.85;1.80;;;13.50;99.90;;;;;;5115919;28;20056;-76
2023/03/31 11:38:43;;;;;;;7.43;1.65;;;13.60;99.90;;;;;;5115967;28;20055;-75
2023/03/31 11:41:53;;;;;;;10.98;1.70;;;13.50;99.90;;;;;;5116738;28;20366;-77
2023/03/31 11:44:21;;;;;;;10.57;1.80;;;13.10;99.90;;;;;;5051947;28;20063;-76
2023/03/31 11:46:52;;;;;;;9.95;2.22;;;13.20;99.90;;;;;;5036352;28;20064;-76
2023/03/31 11:49:37;;;;;;;12.73;3.47;;;13.10;99.90;;;;;;5084240;28;20058;-78
2023/03/31 11:52:28;;;;;;;11.70;2.53;;;13.20;99.90;;;;;;5098376;28;20114;-77
2023/03/31 11:55:16;;;;;;;14.30;2.20;;;13.20;99.90;;;;;;5097379;28;20073;-73
2023/03/31 11:57:46;;;;;;;10.43;2.17;;;13.00;99.90;;;;;;5114397;28;20036;-73
2023/03/31 12:00:18;;;;;;;11.48;1.40;;;13.10;99.90;;;;;;5114550;28;20073;-74
2023/03/31 12:03:12;;;;;;;6.90;1.40;;;13.40;99.90;;;;;;5080470;28;20084;-76
2023/03/31 12:05:45;;;;;;;7.47;1.58;;;13.70;99.90;;;;;;5115162;28;20048;-72
2023/03/31 12:08:35;;;;;;;15.38;2.45;;;14.10;99.90;;;;;;5114582;28;20403;-74
2023/03/31 12:11:34;;;;;;;11.15;2.17;;;14.50;99.90;;;;;;5114388;28;20100;-73
2023/03/31 12:14:38;;;;;;;13.18;2.63;;;14.60;99.90;;;;;;5084212;28;20059;-74
2023/03/31 12:17:13;;;;;;;16.55;2.60;;;14.70;99.90;;;;;;5096212;28;20039;-74
2023/03/31 12:19:54;;;;;;;12.05;2.30;;;14.80;99.90;;;;;;5115236;28;20401;-73
2023/03/31 12:22:37;;;;;;;12.10;2.30;;;14.70;99.90;;;;;;5113565;28;20031;-74
2023/03/31 12:25:04;;;;;;;15.77;2.30;;;14.50;99.90;;;;;;5113755;28;20502;-75
2023/03/31 12:27:43;;;;;;;15.95;3.45;;;14.20;99.90;;;;;;5096142;28;20054;-76
2023/03/31 12:30:43;;;;;;;17.55;2.65;;;14.00;99.90;;;;;;5095708;28;20050;-76
2023/03/31 12:33:19;;;;;;;11.90;1.58;;;13.90;99.90;;;;;;5070093;28;20054;-75
2023/03/31 12:36:22;;;;;;;9.40;1.60;;;14.10;99.90;;;;;;5114553;28;20059;-73
2023/03/31 12:39:05;;;;;;;12.82;1.58;;;14.10;99.90;;;;;;5114322;28;20296;-75
2023/03/31 12:41:36;;;;;;;11.70;1.50;;;14.10;99.90;;;;;;5095310;28;20048;-77
2023/03/31 12:44:28;;;;;;;13.93;1.70;;;14.10;99.90;;;;;;5114422;28;20039;-73
2023/03/31 12:47:17;;;;;;;10.02;1.13;;;13.70;99.90;;;;;;5112914;28;20537;-74
2023/03/31 12:50:21;;;;;;;14.77;1.70;;;13.60;99.90;;;;;;5098033;28;20051;-73
2023/03/31 12:53:10;;;;;;;12.10;1.98;;;13.50;99.90;;;;;;5111506;28;20055;-75
2023/03/31 12:55:43;;;;;;;15.18;1.83;;;13.40;99.90;;;;;;5113957;28;20085;-75
2023/03/31 12:58:25;;;;;;;11.48;2.22;;;13.40;99.90;;;;;;5114690;28;20048;-73
2023/03/31 13:01:20;;;;;;;12.25;2.05;;;13.40;99.90;;;;;;5114466;28;20420;-73
2023/03/31 13:03:54;;;;;;;10.32;1.33;;;13.40;99.90;;;;;;5114180;28;20383;-74
2023/03/31 13:06:29;;;;;;;16.05;1.85;;;13.50;99.90;;;;;;5095611;28;20043;-74
2023/03/31 13:09:08;;;;;;;13.23;1.70;;;13.60;99.90;;;;;;5113544;28;20083;-74
2023/03/31 13:11:36;;;;;;;13.90;2.28;;;13.80;99.90;;;;;;5095372;28;20474;-74
2023/03/31 13:14:20;;;;;;;12.65;1.70;;;14.00;99.90;;;;;;5113910;28;20108;-74
2023/03/31 13:16:47;;;;;;;18.38;2.03;;;14.00;99.90;;;;;;5095287;28;20440;-74